European Mariner — C6HL7 — position and weather

sailwx.info

Track history (hours):
 
Tides and Currents Weather Stations Pressure Air Temp Water Temp Dewpoint Dewpoint Depression Visibility Wind Speed Wind Dir Waves Ship Positions

European Mariner

Operator: P & O Irish Sea

Last reported at 2011-Jul-25 02:33 UTC. Time now 2019-Jul-20 00:53 UTC.
Position N 38°55' E 026°32'.
Warning: this ship's position is years out of date!

Length 117 m; draft 4.5 m.

Type: Cargo ship. MMSI: 308826000.

Date/timePositionNaut miles runAvg speedWind from/ knotsBaromVisibWave heightAir tempDewpointWater temp
2011-Jul-25 02:33N 38°55' E 026°32'3 5.4
2011-Jul-25 02:03N 38°55' E 026°29'2 4.1
2011-Jul-25 01:33N 38°55' E 026°26'5 9.2
2011-Jul-25 01:03N 38°55' E 026°20'4 7.7
2011-Jul-25 00:33N 38°55' E 026°15'3 6.6
2011-Jul-25 00:03N 38°55' E 026°11'3 6.5
2011-Jul-24 23:33N 38°56' E 026°07'3 5.5
2011-Jul-24 23:03N 38°58' E 026°04'3 5.2
2011-Jul-24 22:33N 38°59' E 026°01'3 5.2
2011-Jul-24 22:02N 39°01' E 025°58'2 4.9
2011-Jul-24 21:33N 39°02' E 025°56'3 5.4
2011-Jul-24 21:03N 39°00' E 025°59'3 5.4
2011-Jul-24 20:33N 38°59' E 026°02'3 5.6
2011-Jul-24 20:03N 38°57' E 026°05'3 5.7
2011-Jul-24 19:33N 38°56' E 026°08'3 5.6
2011-Jul-24 19:04N 38°55' E 026°11'2 3.9
2011-Jul-24 18:33N 38°56' E 026°10'3 5.3
2011-Jul-24 18:03N 38°58' E 026°07'3 5.5
2011-Jul-24 17:34N 38°60' E 026°04'3 5.4
2011-Jul-24 17:04N 39°01' E 026°01'3 5.6
2011-Jul-24 16:33N 39°02' E 025°58'3 5.6
2011-Jul-24 16:01N 39°04' E 025°55'2 4.6
2011-Jul-24 15:32N 39°05' E 025°52'3 5.2
2011-Jul-24 15:03N 39°04' E 025°55'2 4.6
2011-Jul-24 14:33N 39°03' E 025°58'2 4.7
2011-Jul-24 14:03N 39°02' E 026°00'3 4.9
2011-Jul-24 13:32N 39°00' E 026°03'3 5.1
2011-Jul-24 13:03N 38°59' E 026°06'3 5.3
2011-Jul-24 12:32N 38°58' E 026°09'3 6.2
2011-Jul-24 12:03N 38°57' E 026°13'1 1.1
2011-Jul-24 11:33N 38°57' E 026°12'3 5.2
2011-Jul-24 11:03N 38°58' E 026°09'2 5.3
2011-Jul-24 10:35N 38°59' E 026°06'3 5.4
2011-Jul-24 10:03N 38°60' E 026°02'3 5.3
2011-Jul-24 09:33N 39°01' E 025°60'3 5.5
2011-Jul-24 09:02N 39°03' E 025°57'3 5.6
2011-Jul-24 08:33N 39°04' E 025°54'3 5.5
2011-Jul-24 08:03N 39°06' E 025°51'6 5.2
2011-Jul-24 06:57N 39°02' E 025°46'2 5.5
2011-Jul-24 06:33N 38°60' E 025°44'6 5.4
2011-Jul-24 05:26N 38°56' E 025°38'3 5.4
2011-Jul-24 04:58N 38°54' E 025°36'2 5.5
2011-Jul-24 04:35N 38°52' E 025°34'22 5.5
2011-Jul-24 00:33N 38°35' E 025°16'3 5.8
2011-Jul-24 00:03N 38°33' E 025°14'3 6.0
2011-Jul-23 23:33N 38°31' E 025°11'3 5.8
2011-Jul-23 23:03N 38°29' E 025°09'5 9.4
2011-Jul-23 22:33N 38°25' E 025°05'5 9.8
2011-Jul-23 22:03N 38°21' E 025°01'5 9.7
2011-Jul-23 21:33N 38°18' E 024°57'5 9.7
2011-Jul-23 21:03N 38°14' E 024°53'5 9.7
2011-Jul-23 20:33N 38°10' E 024°49'5 9.8
2011-Jul-23 20:04N 38°06' E 024°45'5 9.4
2011-Jul-23 19:33N 38°02' E 024°42'9 8.9
2011-Jul-23 18:33N 37°54' E 024°38'4 8.2
2011-Jul-23 18:03N 37°50' E 024°39'5 8.7
2011-Jul-23 17:28N 37°46' E 024°43'4 8.8
2011-Jul-23 17:03N 37°43' E 024°46'4 8.3
2011-Jul-23 16:33N 37°47' E 024°43'3 6.8
2011-Jul-23 16:03N 37°49' E 024°40'5 8.9
2011-Jul-23 15:28N 37°45' E 024°45'4 8.9
2011-Jul-23 15:00N 37°42' E 024°48'4 8.8
2011-Jul-23 14:33N 37°39' E 024°52'4 8.6
2011-Jul-23 14:03N 37°36' E 024°55'4 8.5
2011-Jul-23 13:32N 37°33' E 024°58'4 8.3
2011-Jul-23 13:03N 37°29' E 025°01'4 8.6
2011-Jul-23 12:33N 37°26' E 025°04'4 8.5
2011-Jul-23 12:03N 37°22' E 025°07'4 8.3
2011-Jul-23 11:33N 37°19' E 025°04'4 8.2
2011-Jul-23 11:04N 37°16' E 024°59'4 8.7
2011-Jul-23 10:35N 37°16' E 024°54'4 7.5
2011-Jul-23 10:03N 37°13' E 024°51'4 8.9
2011-Jul-23 09:33N 37°08' E 024°51'5 9.7
2011-Jul-23 09:03N 37°04' E 024°51'5 9.8
2011-Jul-23 08:33N 36°59' E 024°52'510.2
2011-Jul-23 08:03N 36°54' E 024°52'5 9.6
2011-Jul-23 07:33N 36°49' E 024°50'510.0
2011-Jul-23 07:03N 36°45' E 024°47'5 9.8
2011-Jul-23 06:33N 36°40' E 024°45'5 9.5
2011-Jul-23 06:03N 36°37' E 024°41'5 9.7
2011-Jul-23 05:33N 36°32' E 024°38'5 9.6
2011-Jul-23 05:03N 36°28' E 024°35'4 9.4
2011-Jul-23 04:36N 36°26' E 024°30'5 9.8
2011-Jul-23 04:03N 36°24' E 024°24'5 9.8
2011-Jul-23 03:33N 36°22' E 024°18'5 9.7
2011-Jul-23 03:03N 36°21' E 024°13'5 9.5
2011-Jul-23 02:33N 36°19' E 024°07'5 9.5
2011-Jul-23 02:03N 36°18' E 024°02'10 9.6
2011-Jul-23 01:02N 36°14' E 023°50'5 9.6
2011-Jul-23 00:33N 36°12' E 023°45'5 9.4
2011-Jul-23 00:00N 36°10' E 023°39'4 9.3
2011-Jul-22 23:33N 36°09' E 023°34'14 9.5
2011-Jul-22 22:03N 36°04' E 023°18'25 9.5
2011-Jul-22 19:23N 36°01' E 022°47'310.1
2011-Jul-22 19:03N 36°01' E 022°43'36110.3
2011-Jul-21 08:03N 36°36' E 015°17'  
2011-Jul-17 09:33N 36°07' W 004°08'1010.3
2011-Jul-17 08:33N 36°05' W 004°21'9 9.1
2011-Jul-17 07:33N 36°03' W 004°32'5 8.6
2011-Jul-17 07:02N 36°03' W 004°38'5 8.3
2011-Jul-17 06:26N 36°03' W 004°44'3 8.2
2011-Jul-17 06:03N 36°03' W 004°48'4 8.2
2011-Jul-17 05:33N 36°03' W 004°53'4 7.7
2011-Jul-17 05:03N 36°04' W 004°58'510.5
2011-Jul-17 04:36N 36°02' W 005°03'712.7
2011-Jul-17 04:03N 36°00' W 005°11'713.6
2011-Jul-17 03:32N 35°59' W 005°20'612.8
2011-Jul-17 03:03N 35°57' W 005°27'611.8
2011-Jul-17 02:33N 35°56' W 005°34'611.1
2011-Jul-17 02:03N 35°55' W 005°41'510.0
2011-Jul-17 01:33N 35°55' W 005°47'510.4
2011-Jul-17 01:02N 35°54' W 005°54'26910.0
2011-Jul-15 22:04N 38°53' W 010°06'2111.2
2011-Jul-15 20:11N 39°14' W 010°06'  
Track history (hours):
 
Tides and Currents Weather Stations Pressure Air Temp Water Temp Dewpoint Dewpoint Depression Visibility Wind Speed Wind Dir Waves Ship Positions

European Mariner

Operator: P & O Irish Sea

Last reported at 2011-Jul-25 02:33 UTC. Time now 2019-Jul-20 00:53 UTC.
Position N 38°55' E 026°32'.
Warning: this ship's position is years out of date!

Length 117 m; draft 4.5 m.

Type: Cargo ship. MMSI: 308826000.

Date/timePositionNaut miles runAvg speedWind from/ knotsBaromVisibWave heightAir tempDewpointWater temp
2011-Jul-25 02:33N 38°55' E 026°32'3 5.4
2011-Jul-25 02:03N 38°55' E 026°29'2 4.1
2011-Jul-25 01:33N 38°55' E 026°26'5 9.2
2011-Jul-25 01:03N 38°55' E 026°20'4 7.7
2011-Jul-25 00:33N 38°55' E 026°15'3 6.6
2011-Jul-25 00:03N 38°55' E 026°11'3 6.5
2011-Jul-24 23:33N 38°56' E 026°07'3 5.5
2011-Jul-24 23:03N 38°58' E 026°04'3 5.2
2011-Jul-24 22:33N 38°59' E 026°01'3 5.2
2011-Jul-24 22:02N 39°01' E 025°58'2 4.9
2011-Jul-24 21:33N 39°02' E 025°56'3 5.4
2011-Jul-24 21:03N 39°00' E 025°59'3 5.4
2011-Jul-24 20:33N 38°59' E 026°02'3 5.6
2011-Jul-24 20:03N 38°57' E 026°05'3 5.7
2011-Jul-24 19:33N 38°56' E 026°08'3 5.6
2011-Jul-24 19:04N 38°55' E 026°11'2 3.9
2011-Jul-24 18:33N 38°56' E 026°10'3 5.3
2011-Jul-24 18:03N 38°58' E 026°07'3 5.5
2011-Jul-24 17:34N 38°60' E 026°04'3 5.4
2011-Jul-24 17:04N 39°01' E 026°01'3 5.6
2011-Jul-24 16:33N 39°02' E 025°58'3 5.6
2011-Jul-24 16:01N 39°04' E 025°55'2 4.6
2011-Jul-24 15:32N 39°05' E 025°52'3 5.2
2011-Jul-24 15:03N 39°04' E 025°55'2 4.6
2011-Jul-24 14:33N 39°03' E 025°58'2 4.7
2011-Jul-24 14:03N 39°02' E 026°00'3 4.9
2011-Jul-24 13:32N 39°00' E 026°03'3 5.1
2011-Jul-24 13:03N 38°59' E 026°06'3 5.3
2011-Jul-24 12:32N 38°58' E 026°09'3 6.2
2011-Jul-24 12:03N 38°57' E 026°13'1 1.1
2011-Jul-24 11:33N 38°57' E 026°12'3 5.2
2011-Jul-24 11:03N 38°58' E 026°09'2 5.3
2011-Jul-24 10:35N 38°59' E 026°06'3 5.4
2011-Jul-24 10:03N 38°60' E 026°02'3 5.3
2011-Jul-24 09:33N 39°01' E 025°60'3 5.5
2011-Jul-24 09:02N 39°03' E 025°57'3 5.6
2011-Jul-24 08:33N 39°04' E 025°54'3 5.5
2011-Jul-24 08:03N 39°06' E 025°51'6 5.2
2011-Jul-24 06:57N 39°02' E 025°46'2 5.5
2011-Jul-24 06:33N 38°60' E 025°44'6 5.4
2011-Jul-24 05:26N 38°56' E 025°38'3 5.4
2011-Jul-24 04:58N 38°54' E 025°36'2 5.5
2011-Jul-24 04:35N 38°52' E 025°34'22 5.5
2011-Jul-24 00:33N 38°35' E 025°16'3 5.8
2011-Jul-24 00:03N 38°33' E 025°14'3 6.0
2011-Jul-23 23:33N 38°31' E 025°11'3 5.8
2011-Jul-23 23:03N 38°29' E 025°09'5 9.4
2011-Jul-23 22:33N 38°25' E 025°05'5 9.8
2011-Jul-23 22:03N 38°21' E 025°01'5 9.7
2011-Jul-23 21:33N 38°18' E 024°57'5 9.7
2011-Jul-23 21:03N 38°14' E 024°53'5 9.7
2011-Jul-23 20:33N 38°10' E 024°49'5 9.8
2011-Jul-23 20:04N 38°06' E 024°45'5 9.4
2011-Jul-23 19:33N 38°02' E 024°42'9 8.9
2011-Jul-23 18:33N 37°54' E 024°38'4 8.2
2011-Jul-23 18:03N 37°50' E 024°39'5 8.7
2011-Jul-23 17:28N 37°46' E 024°43'4 8.8
2011-Jul-23 17:03N 37°43' E 024°46'4 8.3
2011-Jul-23 16:33N 37°47' E 024°43'3 6.8
2011-Jul-23 16:03N 37°49' E 024°40'5 8.9
2011-Jul-23 15:28N 37°45' E 024°45'4 8.9
2011-Jul-23 15:00N 37°42' E 024°48'4 8.8
2011-Jul-23 14:33N 37°39' E 024°52'4 8.6
2011-Jul-23 14:03N 37°36' E 024°55'4 8.5
2011-Jul-23 13:32N 37°33' E 024°58'4 8.3
2011-Jul-23 13:03N 37°29' E 025°01'4 8.6
2011-Jul-23 12:33N 37°26' E 025°04'4 8.5
2011-Jul-23 12:03N 37°22' E 025°07'4 8.3
2011-Jul-23 11:33N 37°19' E 025°04'4 8.2
2011-Jul-23 11:04N 37°16' E 024°59'4 8.7
2011-Jul-23 10:35N 37°16' E 024°54'4 7.5
2011-Jul-23 10:03N 37°13' E 024°51'4 8.9
2011-Jul-23 09:33N 37°08' E 024°51'5 9.7
2011-Jul-23 09:03N 37°04' E 024°51'5 9.8
2011-Jul-23 08:33N 36°59' E 024°52'510.2
2011-Jul-23 08:03N 36°54' E 024°52'5 9.6
2011-Jul-23 07:33N 36°49' E 024°50'510.0
2011-Jul-23 07:03N 36°45' E 024°47'5 9.8
2011-Jul-23 06:33N 36°40' E 024°45'5 9.5
2011-Jul-23 06:03N 36°37' E 024°41'5 9.7
2011-Jul-23 05:33N 36°32' E 024°38'5 9.6
2011-Jul-23 05:03N 36°28' E 024°35'4 9.4
2011-Jul-23 04:36N 36°26' E 024°30'5 9.8
2011-Jul-23 04:03N 36°24' E 024°24'5 9.8
2011-Jul-23 03:33N 36°22' E 024°18'5 9.7
2011-Jul-23 03:03N 36°21' E 024°13'5 9.5
2011-Jul-23 02:33N 36°19' E 024°07'5 9.5
2011-Jul-23 02:03N 36°18' E 024°02'10 9.6
2011-Jul-23 01:02N 36°14' E 023°50'5 9.6
2011-Jul-23 00:33N 36°12' E 023°45'5 9.4
2011-Jul-23 00:00N 36°10' E 023°39'4 9.3
2011-Jul-22 23:33N 36°09' E 023°34'14 9.5
2011-Jul-22 22:03N 36°04' E 023°18'25 9.5
2011-Jul-22 19:23N 36°01' E 022°47'310.1
2011-Jul-22 19:03N 36°01' E 022°43'36110.3
2011-Jul-21 08:03N 36°36' E 015°17'  
2011-Jul-17 09:33N 36°07' W 004°08'1010.3
2011-Jul-17 08:33N 36°05' W 004°21'9 9.1
2011-Jul-17 07:33N 36°03' W 004°32'5 8.6
2011-Jul-17 07:02N 36°03' W 004°38'5 8.3
2011-Jul-17 06:26N 36°03' W 004°44'3 8.2
2011-Jul-17 06:03N 36°03' W 004°48'4 8.2
2011-Jul-17 05:33N 36°03' W 004°53'4 7.7
2011-Jul-17 05:03N 36°04' W 004°58'510.5
2011-Jul-17 04:36N 36°02' W 005°03'712.7
2011-Jul-17 04:03N 36°00' W 005°11'713.6
2011-Jul-17 03:32N 35°59' W 005°20'612.8
2011-Jul-17 03:03N 35°57' W 005°27'611.8
2011-Jul-17 02:33N 35°56' W 005°34'611.1
2011-Jul-17 02:03N 35°55' W 005°41'510.0
2011-Jul-17 01:33N 35°55' W 005°47'510.4
2011-Jul-17 01:02N 35°54' W 005°54'26910.0
2011-Jul-15 22:04N 38°53' W 010°06'2111.2
2011-Jul-15 20:11N 39°14' W 010°06'  

Dump ship's entire track history